createdAt,value
2018-06-15T00:00:16.194Z,25.93
2018-06-15T00:02:49.038Z,14.50
2018-06-15T00:05:17.815Z,16.93
2018-06-15T00:07:46.577Z,19.83
2018-06-15T00:10:15.345Z,16.47
2018-06-15T00:12:44.163Z,22.30
2018-06-15T00:15:12.928Z,21.30
2018-06-15T00:17:41.702Z,23.57
2018-06-15T00:20:10.596Z,18.67
2018-06-15T00:22:39.335Z,17.10
2018-06-15T00:25:08.096Z,16.97
2018-06-15T00:27:36.870Z,18.83
2018-06-15T00:30:06.128Z,15.20
2018-06-15T00:32:34.884Z,23.20
2018-06-15T00:35:03.952Z,20.73
2018-06-15T00:37:32.734Z,25.97
2018-06-15T00:40:01.528Z,23.20
2018-06-15T00:42:30.384Z,20.87
2018-06-15T00:44:59.223Z,18.23
2018-06-15T00:47:28.015Z,25.10
2018-06-15T00:49:56.781Z,21.00
2018-06-15T00:52:25.572Z,19.50
2018-06-15T00:54:54.355Z,22.93
2018-06-15T00:57:34.129Z,18.00
2018-06-15T01:00:02.952Z,21.03
2018-06-15T01:02:31.733Z,23.87
2018-06-15T01:05:00.510Z,20.57
2018-06-15T01:07:29.440Z,21.80
2018-06-15T01:09:58.241Z,18.63
2018-06-15T01:12:27.050Z,19.70
2018-06-15T01:14:55.804Z,18.00
2018-06-15T01:17:24.605Z,16.27
2018-06-15T01:19:53.436Z,16.07
2018-06-15T01:22:22.192Z,21.83
2018-06-15T01:24:51.069Z,20.07
2018-06-15T01:27:19.847Z,19.50
2018-06-15T01:29:48.639Z,17.67
2018-06-15T01:32:17.418Z,20.63
2018-06-15T01:34:46.192Z,19.07
2018-06-15T01:37:14.939Z,17.13
2018-06-15T01:39:43.819Z,24.00
2018-06-15T01:42:12.577Z,21.50
2018-06-15T01:44:41.347Z,21.57
2018-06-15T01:47:10.192Z,25.40
2018-06-15T01:49:39.063Z,24.13
2018-06-15T01:52:07.857Z,21.57
2018-06-15T01:54:36.661Z,23.40
2018-06-15T01:57:05.423Z,22.80
2018-06-15T01:59:34.190Z,22.93
2018-06-15T02:02:03.022Z,19.77
2018-06-15T02:04:31.776Z,24.07
2018-06-15T02:07:00.548Z,20.97
2018-06-15T02:09:29.371Z,22.83
2018-06-15T02:11:58.171Z,25.33
2018-06-15T02:14:26.935Z,24.93
2018-06-15T02:16:55.719Z,22.13
2018-06-15T02:19:24.477Z,18.73
2018-06-15T02:21:53.288Z,23.70
2018-06-15T02:24:22.053Z,22.90
2018-06-15T02:26:50.865Z,21.23
2018-06-15T02:29:19.646Z,24.77
2018-06-15T02:31:48.501Z,18.93
2018-06-15T02:34:17.251Z,23.60
2018-06-15T02:36:46.023Z,27.40
2018-06-15T02:39:14.837Z,22.07
2018-06-15T02:41:43.717Z,22.87
2018-06-15T02:44:12.515Z,19.50
2018-06-15T02:46:41.332Z,20.03
2018-06-15T02:49:10.109Z,21.73
2018-06-15T02:51:38.996Z,23.20
2018-06-15T02:54:07.839Z,16.67
2018-06-15T02:56:36.873Z,21.13
2018-06-15T02:59:05.771Z,26.30
2018-06-15T03:01:34.562Z,17.57
2018-06-15T03:04:03.335Z,20.43
2018-06-15T03:06:32.077Z,21.50
2018-06-15T03:09:00.837Z,20.20
2018-06-15T03:11:29.631Z,21.43
2018-06-15T03:13:58.484Z,22.50
2018-06-15T03:16:27.375Z,26.43
2018-06-15T03:18:56.149Z,24.57
2018-06-15T03:21:24.956Z,22.67
2018-06-15T03:23:53.715Z,19.87
2018-06-15T03:26:22.504Z,26.87
2018-06-15T03:28:51.307Z,15.70
2018-06-15T03:31:20.078Z,20.70
2018-06-15T03:33:48.873Z,22.57
2018-06-15T03:36:17.725Z,20.37
2018-06-15T03:38:46.689Z,20.53
2018-06-15T03:41:15.487Z,18.23
2018-06-15T03:43:44.259Z,20.30
2018-06-15T03:46:13.039Z,18.03
2018-06-15T03:48:41.810Z,19.07
2018-06-15T03:51:10.609Z,17.77
2018-06-15T03:53:39.421Z,21.30
2018-06-15T03:56:08.201Z,23.03
2018-06-15T03:58:37.120Z,22.37
2018-06-15T04:01:05.988Z,19.47
2018-06-15T04:03:34.856Z,23.77
2018-06-15T04:06:03.649Z,16.70
2018-06-15T04:08:32.446Z,18.80
2018-06-15T04:11:01.217Z,16.83
2018-06-15T04:13:30.018Z,16.97
2018-06-15T04:15:58.827Z,19.60
2018-06-15T04:18:27.608Z,26.27
2018-06-15T04:20:56.425Z,20.00
2018-06-15T04:23:25.301Z,20.57
2018-06-15T04:25:54.081Z,23.87
2018-06-15T04:28:22.852Z,23.63
2018-06-15T04:30:51.657Z,24.03
2018-06-15T04:33:20.437Z,29.53
2018-06-15T04:35:49.204Z,22.80
2018-06-15T04:38:18.192Z,24.57
2018-06-15T04:40:47.011Z,21.30
2018-06-15T04:43:15.821Z,21.60
2018-06-15T04:45:44.753Z,26.60
2018-06-15T04:48:13.589Z,31.00
2018-06-15T04:50:42.379Z,26.10
2018-06-15T04:53:11.257Z,20.67
2018-06-15T04:55:40.068Z,21.00
2018-06-15T04:58:08.833Z,20.23
2018-06-15T05:00:37.692Z,23.43
2018-06-15T05:03:06.464Z,23.50
2018-06-15T05:05:35.256Z,20.47
2018-06-15T05:08:04.158Z,18.07
2018-06-15T05:10:32.944Z,23.23
2018-06-15T05:13:01.699Z,19.27
2018-06-15T05:15:30.475Z,16.03
2018-06-15T05:17:59.246Z,18.93
2018-06-15T05:20:28.010Z,17.43
2018-06-15T05:22:56.774Z,21.53
2018-06-15T05:25:25.611Z,36.20
2018-06-15T05:27:54.417Z,22.00
2018-06-15T05:30:23.319Z,19.27
2018-06-15T05:32:52.122Z,19.60
2018-06-15T05:35:20.905Z,21.43
2018-06-15T05:37:49.699Z,20.10
2018-06-15T05:40:18.518Z,21.03
2018-06-15T05:42:47.288Z,20.40
2018-06-15T05:45:16.060Z,21.60
2018-06-15T05:47:44.819Z,26.47
2018-06-15T05:50:13.594Z,25.33
2018-06-15T05:52:42.526Z,21.43
2018-06-15T05:55:11.330Z,22.70
2018-06-15T05:57:40.121Z,17.47
2018-06-15T06:00:08.930Z,14.93
2018-06-15T06:02:37.712Z,18.43
2018-06-15T06:05:06.571Z,21.77
2018-06-15T06:07:35.363Z,18.93
2018-06-15T06:10:04.499Z,19.33
2018-06-15T06:12:33.286Z,15.47
2018-06-15T06:15:02.237Z,15.40
2018-06-15T06:17:31.052Z,20.90
2018-06-15T06:20:00.056Z,18.57
2018-06-15T06:22:28.883Z,18.60
2018-06-15T06:24:57.664Z,18.47
2018-06-15T06:27:26.466Z,23.73
2018-06-15T06:29:55.247Z,16.83
2018-06-15T06:32:24.024Z,15.07
2018-06-15T06:34:52.820Z,15.70
2018-06-15T06:37:21.742Z,17.70
2018-06-15T06:39:50.527Z,15.23
2018-06-15T06:42:19.287Z,10.73
2018-06-15T06:44:48.063Z,10.40
2018-06-15T06:47:16.845Z,11.90
2018-06-15T06:49:45.600Z,13.33
2018-06-15T06:52:14.388Z,13.77
2018-06-15T06:54:43.283Z,15.63
2018-06-15T06:57:12.075Z,13.57
2018-06-15T06:59:40.895Z,19.13
2018-06-15T07:02:09.700Z,12.87
2018-06-15T07:04:38.485Z,15.90
2018-06-15T07:07:07.245Z,14.03
2018-06-15T07:09:36.072Z,12.53
2018-06-15T07:12:04.866Z,13.13
2018-06-15T07:14:33.651Z,11.30
2018-06-15T07:17:02.440Z,8.83
2018-06-15T07:19:31.217Z,13.13
2018-06-15T07:22:00.097Z,13.23
2018-06-15T07:24:28.883Z,10.37
2018-06-15T07:26:57.644Z,9.13
2018-06-15T07:29:26.535Z,9.13
2018-06-15T07:31:55.344Z,11.97
2018-06-15T07:34:24.124Z,12.50
2018-06-15T07:36:52.888Z,9.17
2018-06-15T07:39:22.284Z,12.00
2018-06-15T07:41:51.047Z,12.70
2018-06-15T07:44:19.915Z,9.17
2018-06-15T07:46:48.686Z,8.87
2018-06-15T07:49:17.514Z,11.37
2018-06-15T07:51:46.389Z,6.97
2018-06-15T07:54:15.180Z,8.23
2018-06-15T07:56:43.940Z,6.43
2018-06-15T07:59:12.686Z,10.63
2018-06-15T08:01:41.550Z,8.23
2018-06-15T08:04:12.364Z,9.70
2018-06-15T08:06:41.693Z,9.40
2018-06-15T08:09:10.812Z,10.33
2018-06-15T08:11:39.572Z,9.13
2018-06-15T08:14:08.363Z,7.17
2018-06-15T08:16:37.171Z,8.20
2018-06-15T08:19:06.120Z,6.80
2018-06-15T08:21:34.883Z,7.90
2018-06-15T08:24:03.760Z,6.80
2018-06-15T08:26:32.544Z,10.80
2018-06-15T08:29:01.387Z,9.47
2018-06-15T08:31:30.293Z,6.13
2018-06-15T08:33:59.096Z,7.17
2018-06-15T08:36:27.888Z,10.90
2018-06-15T08:38:56.823Z,10.73
2018-06-15T08:41:25.593Z,6.00
2018-06-15T08:43:54.482Z,8.67
2018-06-15T08:46:23.527Z,11.87
2018-06-15T08:48:52.317Z,6.63
2018-06-15T08:51:21.105Z,6.57
2018-06-15T08:53:49.890Z,5.93
2018-06-15T08:56:18.667Z,6.10
2018-06-15T08:58:47.455Z,6.77
2018-06-15T09:01:16.236Z,11.70
2018-06-15T09:03:45.028Z,9.97
2018-06-15T09:06:13.809Z,5.27
2018-06-15T09:08:42.589Z,8.30
2018-06-15T09:11:11.886Z,8.23
2018-06-15T09:13:40.786Z,7.90
2018-06-15T09:16:09.702Z,5.50
2018-06-15T09:18:38.517Z,5.83
2018-06-15T09:21:07.347Z,8.87
2018-06-15T09:23:36.140Z,7.20
2018-06-15T09:26:04.974Z,6.57
2018-06-15T09:28:33.775Z,5.13
2018-06-15T09:31:02.564Z,5.13
2018-06-15T09:33:31.366Z,6.50
2018-06-15T09:36:00.267Z,5.40
2018-06-15T09:38:29.036Z,7.00
2018-06-15T09:40:57.864Z,6.63
2018-06-15T09:43:26.642Z,11.17
2018-06-15T09:45:56.032Z,10.80
2018-06-15T09:48:25.041Z,6.30
2018-06-15T09:50:53.828Z,7.53
2018-06-15T09:53:22.608Z,5.27
2018-06-15T09:55:51.503Z,4.97
2018-06-15T09:58:20.449Z,7.07
2018-06-15T10:00:52.655Z,9.80
2018-06-15T10:03:21.602Z,10.03
2018-06-15T10:05:50.430Z,9.07
2018-06-15T10:08:19.329Z,6.10
2018-06-15T10:10:48.129Z,7.60
2018-06-15T10:13:16.949Z,6.63
2018-06-15T10:15:45.741Z,6.03
2018-06-15T10:18:14.519Z,7.33
2018-06-15T10:20:43.409Z,5.17
2018-06-15T10:23:12.223Z,9.17
2018-06-15T10:25:41.009Z,5.23
2018-06-15T10:28:10.116Z,4.60
2018-06-15T10:30:38.971Z,8.80
2018-06-15T10:33:07.982Z,8.13
2018-06-15T10:35:36.783Z,5.03
2018-06-15T10:38:05.658Z,6.43
2018-06-15T10:40:34.479Z,6.00
2018-06-15T10:43:03.351Z,6.50
2018-06-15T10:45:32.164Z,9.53
2018-06-15T10:48:01.056Z,7.80
2018-06-15T10:50:29.959Z,8.83
2018-06-15T10:52:58.973Z,10.97
2018-06-15T10:55:27.749Z,7.10
2018-06-15T10:57:56.520Z,8.77
2018-06-15T11:00:25.282Z,5.90
2018-06-15T11:02:54.103Z,6.47
2018-06-15T11:05:24.780Z,4.73
2018-06-15T11:07:53.583Z,10.47
2018-06-15T11:10:22.452Z,9.13
2018-06-15T11:12:51.228Z,7.80
2018-06-15T11:15:20.023Z,7.57
2018-06-15T11:17:48.820Z,8.97
2018-06-15T11:20:17.609Z,11.70
2018-06-15T11:22:46.458Z,6.17
2018-06-15T11:25:15.245Z,10.93
2018-06-15T11:27:44.091Z,2.57
2018-06-15T11:30:12.907Z,2.23
2018-06-15T11:32:41.763Z,2.17
2018-06-15T11:35:10.573Z,3.57
2018-06-15T11:37:39.346Z,2.93
2018-06-15T11:40:08.158Z,4.93
2018-06-15T11:42:36.970Z,4.63
2018-06-15T11:45:05.855Z,5.53
2018-06-15T11:47:34.844Z,6.80
2018-06-15T11:50:03.836Z,3.50
2018-06-15T11:52:32.748Z,7.33
2018-06-15T11:55:02.119Z,5.00
2018-06-15T11:57:30.908Z,5.50
2018-06-15T11:59:59.755Z,6.57
2018-06-15T12:02:28.549Z,7.77
2018-06-15T12:04:57.309Z,7.73
2018-06-15T12:07:26.089Z,8.50
2018-06-15T12:09:54.991Z,14.97
2018-06-15T12:12:23.893Z,8.80
2018-06-15T12:14:52.689Z,7.03
2018-06-15T12:17:21.518Z,7.10
2018-06-15T12:19:50.284Z,8.97
2018-06-15T12:22:19.080Z,8.17
2018-06-15T12:24:48.172Z,15.43
2018-06-15T12:27:16.999Z,10.17
2018-06-15T12:29:45.755Z,7.80
2018-06-15T12:32:14.527Z,12.80
2018-06-15T12:34:43.383Z,7.10
2018-06-15T12:37:12.183Z,8.13
2018-06-15T12:39:40.979Z,6.57
2018-06-15T12:42:09.780Z,6.83
2018-06-15T12:44:38.588Z,9.00
2018-06-15T12:47:07.383Z,6.20
2018-06-15T12:49:36.177Z,5.83
2018-06-15T12:52:04.980Z,9.63
2018-06-15T12:54:33.803Z,8.93
2018-06-15T12:57:02.726Z,5.77
2018-06-15T12:59:31.553Z,6.30
2018-06-15T13:02:00.369Z,8.07
2018-06-15T13:04:29.120Z,6.90
2018-06-15T13:06:57.978Z,7.37
2018-06-15T13:09:26.726Z,6.00
2018-06-15T13:11:55.503Z,7.10
2018-06-15T13:14:24.322Z,6.23
2018-06-15T13:16:53.134Z,5.63
2018-06-15T13:19:22.056Z,4.40
2018-06-15T13:21:50.926Z,5.93
2018-06-15T13:24:19.730Z,6.13
2018-06-15T13:26:48.517Z,5.40
2018-06-15T13:29:17.319Z,5.43
2018-06-15T13:31:46.125Z,6.63
2018-06-15T13:34:14.932Z,6.97
2018-06-15T13:36:43.710Z,4.87
2018-06-15T13:39:13.687Z,11.30
2018-06-15T13:41:42.556Z,7.93
2018-06-15T13:44:11.382Z,15.07
2018-06-15T13:46:40.167Z,5.73
2018-06-15T13:49:08.955Z,11.97
2018-06-15T13:51:37.760Z,7.53
2018-06-15T13:54:06.522Z,6.73
2018-06-15T13:56:35.375Z,5.13
2018-06-15T13:59:04.290Z,6.43
2018-06-15T14:01:33.088Z,6.93
2018-06-15T14:04:01.968Z,4.63
2018-06-15T14:06:30.776Z,6.27
2018-06-15T14:08:59.662Z,9.23
2018-06-15T14:11:28.489Z,4.93
2018-06-15T14:13:57.263Z,13.90
2018-06-15T14:16:26.029Z,18.90
2018-06-15T14:18:54.966Z,12.30
2018-06-15T14:21:23.805Z,7.33
2018-06-15T14:23:52.591Z,8.27
2018-06-15T14:26:21.488Z,15.03
2018-06-15T14:28:50.360Z,12.60
2018-06-15T14:31:19.251Z,9.87
2018-06-15T14:33:48.058Z,6.97
2018-06-15T14:36:16.832Z,10.53
2018-06-15T14:38:45.615Z,7.47
2018-06-15T14:41:14.396Z,7.83
2018-06-15T14:43:43.180Z,8.20
2018-06-15T14:46:11.938Z,5.47
2018-06-15T14:48:40.846Z,8.97
2018-06-15T14:51:09.748Z,7.20
2018-06-15T14:53:38.702Z,8.37
2018-06-15T14:56:07.767Z,8.30
2018-06-15T14:58:36.547Z,9.60
2018-06-15T15:01:05.459Z,6.20
2018-06-15T15:03:34.330Z,7.77
2018-06-15T15:06:03.229Z,7.20
2018-06-15T15:08:32.024Z,6.23
2018-06-15T15:11:00.964Z,3.60
2018-06-15T15:13:29.831Z,6.43
2018-06-15T15:15:58.633Z,8.60
2018-06-15T15:18:27.490Z,4.80
2018-06-15T15:20:56.313Z,11.03
2018-06-15T15:23:25.129Z,7.47
2018-06-15T15:25:53.950Z,6.17
2018-06-15T15:28:22.782Z,6.13
2018-06-15T15:30:51.662Z,10.10
2018-06-15T15:33:20.546Z,7.33
2018-06-15T15:35:49.539Z,16.27
2018-06-15T15:38:18.338Z,6.23
2018-06-15T15:40:47.135Z,3.37
2018-06-15T15:44:45.272Z,2.93
2018-06-15T15:47:14.106Z,3.73
2018-06-15T15:49:42.960Z,4.13
2018-06-15T15:52:11.790Z,3.03
2018-06-15T15:54:40.713Z,29.00
2018-06-15T15:57:09.569Z,14.93
2018-06-15T15:59:38.428Z,15.87
2018-06-15T16:02:07.274Z,43.43
2018-06-15T16:04:36.104Z,31.53
2018-06-15T16:07:04.999Z,79.77
2018-06-15T16:09:33.844Z,19.57
2018-06-15T16:12:02.615Z,24.27
2018-06-15T16:14:31.416Z,7.10
2018-06-15T16:17:00.295Z,5.57
2018-06-15T16:19:29.174Z,7.77
2018-06-15T16:21:58.017Z,7.77
2018-06-15T16:24:26.806Z,6.50
2018-06-15T16:26:55.627Z,5.07
2018-06-15T16:29:24.479Z,4.73
2018-06-15T16:31:53.295Z,4.93
2018-06-15T16:34:22.265Z,6.37
2018-06-15T16:36:51.118Z,8.73
2018-06-15T16:39:20.125Z,8.50
2018-06-15T16:41:49.118Z,6.97
2018-06-15T16:44:18.100Z,8.37
2018-06-15T16:46:47.023Z,11.70
2018-06-15T16:49:15.822Z,13.47
2018-06-15T16:51:44.709Z,11.87
2018-06-15T16:54:13.589Z,17.00
2018-06-15T16:56:42.465Z,10.90
2018-06-15T16:59:11.397Z,16.50
2018-06-15T17:01:40.326Z,10.53
2018-06-15T17:04:09.183Z,14.53
2018-06-15T17:06:38.112Z,13.17
2018-06-15T17:09:08.563Z,10.53
2018-06-15T17:11:37.387Z,14.90
2018-06-15T17:14:06.571Z,22.83
2018-06-15T17:16:35.544Z,21.70
2018-06-15T17:19:04.391Z,13.97
2018-06-15T17:21:33.370Z,8.83
2018-06-15T17:24:02.270Z,8.63
2018-06-15T17:26:31.288Z,10.37
2018-06-15T17:29:00.192Z,7.93
2018-06-15T17:31:29.185Z,10.43
2018-06-15T17:33:57.999Z,10.07
2018-06-15T17:36:26.874Z,9.43
2018-06-15T17:38:55.738Z,16.77
2018-06-15T17:41:24.502Z,10.57
2018-06-15T17:43:53.381Z,24.13
2018-06-15T17:46:22.305Z,47.60
2018-06-15T17:48:51.152Z,38.23
2018-06-15T17:51:19.967Z,37.77
2018-06-15T17:53:48.767Z,15.10
2018-06-15T17:56:17.562Z,29.17
2018-06-15T17:58:46.360Z,48.00
2018-06-15T18:01:15.162Z,57.83
2018-06-15T18:03:44.023Z,93.07
2018-06-15T18:06:12.820Z,28.03
2018-06-15T18:08:41.698Z,9.77
2018-06-15T18:11:10.686Z,10.90
2018-06-15T18:13:39.499Z,48.50
2018-06-15T18:16:08.329Z,43.60
2018-06-15T18:18:37.133Z,27.93
2018-06-15T18:21:06.031Z,9.57
2018-06-15T18:23:34.929Z,6.83
2018-06-15T18:26:03.819Z,8.63
2018-06-15T18:28:32.660Z,62.13
2018-06-15T18:31:01.559Z,46.00
2018-06-15T18:33:30.446Z,35.07
2018-06-15T18:35:59.248Z,69.13
2018-06-15T18:38:28.120Z,109.40
2018-06-15T18:40:56.913Z,181.80
2018-06-15T18:43:25.705Z,136.37
2018-06-15T18:45:54.628Z,100.23
2018-06-15T18:48:23.539Z,83.23
2018-06-15T18:50:52.383Z,50.67
2018-06-15T18:53:21.264Z,51.30
2018-06-15T18:55:50.070Z,47.43
2018-06-15T18:58:18.952Z,13.10
2018-06-15T19:00:47.813Z,10.80
2018-06-15T19:03:16.646Z,23.17
2018-06-15T19:05:45.622Z,129.60
2018-06-15T19:08:14.506Z,140.43
2018-06-15T19:10:43.304Z,95.37
2018-06-15T19:13:12.176Z,70.30
2018-06-15T19:15:41.197Z,102.03
2018-06-15T19:18:10.924Z,85.10
2018-06-15T19:20:39.866Z,83.87
2018-06-15T19:23:08.682Z,28.10
2018-06-15T19:25:37.522Z,24.43
2018-06-15T19:28:06.345Z,23.07
2018-06-15T19:30:35.324Z,29.50
2018-06-15T19:33:04.166Z,30.23
2018-06-15T19:35:33.017Z,27.50
2018-06-15T19:38:02.128Z,8.47
2018-06-15T19:40:30.960Z,13.70
2018-06-15T19:42:59.763Z,9.83
2018-06-15T19:45:28.669Z,14.73
2018-06-15T19:47:57.497Z,23.53
2018-06-15T19:50:26.315Z,28.50
2018-06-15T19:52:55.153Z,43.87
2018-06-15T19:55:24.020Z,36.97
2018-06-15T19:57:52.874Z,28.27
2018-06-15T20:00:21.809Z,28.17
2018-06-15T20:02:50.625Z,15.83
2018-06-15T20:05:19.522Z,10.37
2018-06-15T20:07:48.278Z,7.17
2018-06-15T20:10:17.092Z,8.07
2018-06-15T20:12:45.993Z,8.37
2018-06-15T20:15:14.866Z,12.43
2018-06-15T20:17:43.663Z,12.13
2018-06-15T20:20:12.473Z,10.63
2018-06-15T20:22:41.380Z,11.70
2018-06-15T20:25:10.180Z,11.83
2018-06-15T20:27:39.269Z,10.87
2018-06-15T20:30:08.746Z,10.60
2018-06-15T20:32:37.779Z,10.33
2018-06-15T20:35:06.824Z,11.60
2018-06-15T20:37:35.636Z,8.43
2018-06-15T20:40:04.539Z,11.07
2018-06-15T20:42:33.327Z,10.37
2018-06-15T20:45:02.329Z,8.73
2018-06-15T20:47:31.116Z,8.03
2018-06-15T20:49:59.985Z,8.93
2018-06-15T20:52:28.796Z,9.23
2018-06-15T20:54:57.587Z,7.80
2018-06-15T20:57:26.440Z,7.63
2018-06-15T20:59:55.364Z,8.77
2018-06-15T21:02:24.165Z,7.50
2018-06-15T21:04:52.950Z,8.53
2018-06-15T21:07:21.927Z,7.37
2018-06-15T21:09:50.766Z,9.27
2018-06-15T21:12:19.574Z,8.20
2018-06-15T21:14:48.352Z,6.80
2018-06-15T21:17:17.240Z,7.97
2018-06-15T21:19:46.032Z,7.23
2018-06-15T21:22:15.116Z,9.50
2018-06-15T21:24:44.948Z,9.43
2018-06-15T21:27:13.747Z,8.13
2018-06-15T21:29:42.608Z,9.97
2018-06-15T21:32:11.401Z,7.90
2018-06-15T21:34:40.264Z,6.67
2018-06-15T21:37:09.059Z,7.47
2018-06-15T21:39:37.825Z,9.23
2018-06-15T21:42:06.679Z,8.33
2018-06-15T21:44:35.472Z,9.10
2018-06-15T21:47:04.313Z,9.07
2018-06-15T21:49:33.135Z,7.97
2018-06-15T21:52:01.998Z,9.07
2018-06-15T21:54:30.809Z,12.00
2018-06-15T21:58:28.888Z,9.90
2018-06-15T22:00:57.744Z,12.33
2018-06-15T22:03:26.575Z,11.77
2018-06-15T22:05:55.482Z,11.87
2018-06-15T22:08:24.401Z,12.57
2018-06-15T22:10:53.175Z,12.63
2018-06-15T22:13:22.003Z,16.47
2018-06-15T22:15:50.821Z,12.43
2018-06-15T22:18:19.618Z,18.10
2018-06-15T22:20:48.500Z,14.00
2018-06-15T22:23:17.340Z,13.53
2018-06-15T22:25:46.400Z,19.13
2018-06-15T22:28:15.155Z,17.87
2018-06-15T22:30:43.966Z,16.90
2018-06-15T22:33:12.775Z,17.83
2018-06-15T22:35:41.661Z,19.67
2018-06-15T22:38:10.445Z,15.37
2018-06-15T22:40:39.239Z,17.03
2018-06-15T22:43:08.111Z,14.30
2018-06-15T22:45:36.913Z,12.53
2018-06-15T22:48:05.778Z,12.37
2018-06-15T22:50:34.725Z,10.47
2018-06-15T22:53:03.591Z,9.83
2018-06-15T22:55:32.374Z,13.10
2018-06-15T22:58:01.313Z,10.67
2018-06-15T23:00:30.112Z,12.63
2018-06-15T23:02:58.911Z,10.47
2018-06-15T23:05:27.684Z,12.00
2018-06-15T23:07:56.459Z,10.37
2018-06-15T23:10:25.259Z,11.80
2018-06-15T23:12:54.052Z,11.80
2018-06-15T23:15:22.842Z,12.30
2018-06-15T23:17:51.629Z,10.83
2018-06-15T23:20:20.500Z,12.77
2018-06-15T23:22:49.290Z,10.20
2018-06-15T23:25:18.184Z,11.57
2018-06-15T23:27:46.940Z,10.33
2018-06-15T23:30:15.699Z,12.63
2018-06-15T23:32:44.447Z,9.30
2018-06-15T23:35:13.889Z,8.37
2018-06-15T23:37:42.709Z,8.87
2018-06-15T23:40:11.481Z,10.83
2018-06-15T23:42:40.403Z,10.63
2018-06-15T23:45:09.192Z,8.57
2018-06-15T23:47:37.988Z,9.77
2018-06-15T23:50:07.268Z,8.10
2018-06-15T23:52:36.043Z,10.13
2018-06-15T23:55:04.962Z,11.57
2018-06-15T23:57:33.860Z,7.73
